Time;durP1;ratioP1;P1;durP2;ratioP2;P2;SDS_P1;SDS_P2;PMS_P1;PMS_P2;Temp;Humidity;BMP_temperature;BMP_pressure;BME280_temperature;BME280_humidity;BME280_pressure;Samples;Min_cycle;Max_cycle;Signal;HPM_P1;HPM_P2
2022/06/05 00:02:12;;;;;;;5.45;3.58;;;;;;;15.53;88.54;101187.25;5210765;28;20029;-74
2022/06/05 00:04:45;;;;;;;7.32;4.15;;;;;;;15.47;89.32;101179.63;5207433;28;20033;-73
2022/06/05 00:07:21;;;;;;;4.88;3.42;;;;;;;15.57;88.34;101182.69;5205491;28;20068;-74
2022/06/05 00:10:07;;;;;;;5.57;3.78;;;;;;;15.31;90.09;101183.88;5205465;28;20040;-74
2022/06/05 00:13:02;;;;;;;6.03;3.65;;;;;;;15.40;88.64;101172.91;5208519;28;20083;-74
2022/06/05 00:15:33;;;;;;;7.07;3.63;;;;;;;15.31;90.09;101188.28;5204189;28;20071;-74
2022/06/05 00:18:04;;;;;;;4.47;3.55;;;;;;;15.23;90.28;101170.19;5211132;28;20032;-75
2022/06/05 00:20:34;;;;;;;6.40;3.97;;;;;;;15.22;90.09;101176.34;5208176;28;20493;-74
2022/06/05 00:23:05;;;;;;;7.70;4.07;;;;;;;15.30;89.39;101171.66;5212047;28;20091;-73
2022/06/05 00:26:00;;;;;;;5.35;3.60;;;;;;;15.27;89.46;101177.03;5210104;28;20502;-73
2022/06/05 00:29:06;;;;;;;6.72;3.95;;;;;;;15.40;88.76;101172.91;5210966;28;20044;-73
2022/06/05 00:31:49;;;;;;;7.83;3.70;;;;;;;15.25;89.48;101173.63;5190787;28;20029;-73
2022/06/05 00:34:19;;;;;;;6.90;4.07;;;;;;;15.07;90.39;101169.16;5191690;28;20029;-74
2022/06/05 00:36:56;;;;;;;8.63;3.97;;;;;;;15.15;89.07;101169.66;5205361;28;20048;-74
2022/06/05 00:39:39;;;;;;;8.15;3.72;;;;;;;15.09;89.48;101162.06;5203520;28;20071;-75
2022/06/05 00:42:16;;;;;;;7.13;3.60;;;;;;;15.16;88.91;101163.47;5202742;28;20158;-73
2022/06/05 00:44:50;;;;;;;5.28;3.42;;;;;;;15.11;88.94;101164.59;5210692;28;20035;-73
2022/06/05 00:47:32;;;;;;;5.18;3.47;;;;;;;15.16;89.32;101150.31;5193771;28;20029;-74
2022/06/05 00:50:08;;;;;;;5.53;3.65;;;;;;;15.22;88.59;101136.84;5187367;28;20090;-74
2022/06/05 00:52:42;;;;;;;5.05;3.38;;;;;;;15.31;87.88;101133.84;5201740;28;20029;-73
2022/06/05 00:55:14;;;;;;;6.07;3.60;;;;;;;15.24;87.43;101134.16;5207357;28;20518;-74
2022/06/05 00:57:46;;;;;;;4.43;3.30;;;;;;;15.31;87.18;101125.06;5209098;28;20442;-75
2022/06/05 01:00:22;;;;;;;7.57;3.60;;;;;;;15.19;88.58;101121.19;5209452;28;20511;-74
2022/06/05 01:02:55;;;;;;;6.68;3.63;;;;;;;15.24;87.15;101119.22;5208248;28;20108;-74
2022/06/05 01:05:26;;;;;;;3.95;3.25;;;;;;;15.27;86.92;101126.13;5210788;28;20090;-73
2022/06/05 01:07:57;;;;;;;6.53;3.00;;;;;;;15.44;86.56;101124.47;5201300;28;20025;-75
2022/06/05 01:11:12;;;;;;;6.43;3.58;;;;;;;15.34;85.90;101133.69;5206003;28;20083;-74
2022/06/05 01:14:20;;;;;;;6.03;3.35;;;;;;;15.01;89.59;101137.00;5172182;28;20556;-74
2022/06/05 01:17:04;;;;;;;5.45;3.60;;;;;;;14.67;89.75;101122.72;5207911;28;20041;-74
2022/06/05 01:19:52;;;;;;;7.25;3.67;;;;;;;14.73;89.92;101118.06;5203712;28;20502;-74
2022/06/05 01:23:00;;;;;;;4.82;3.58;;;;;;;14.67;91.28;101125.38;5209076;28;20077;-73
2022/06/05 01:25:48;;;;;;;5.68;3.40;;;;;;;14.22;92.08;101120.28;5206996;28;20026;-74
2022/06/05 01:28:26;;;;;;;6.15;3.58;;;;;;;14.22;92.81;101108.94;5207233;28;20103;-74
2022/06/05 01:31:01;;;;;;;5.65;3.63;;;;;;;14.32;92.17;101118.13;5207819;28;20022;-74
2022/06/05 01:33:37;;;;;;;4.80;3.15;;;;;;;14.29;91.88;101120.91;5185405;28;20025;-75
2022/06/05 01:36:49;;;;;;;5.60;3.50;;;;;;;14.36;90.84;101125.84;5208854;28;20029;-74
2022/06/05 01:39:25;;;;;;;7.18;3.50;;;;;;;14.37;91.09;101124.03;5198954;28;20123;-74
2022/06/05 01:42:02;;;;;;;5.47;3.53;;;;;;;14.50;90.15;101119.97;5214227;28;20021;-74
2022/06/05 01:44:39;;;;;;;6.22;3.90;;;;;;;14.33;92.09;101125.97;5210511;28;20056;-75
2022/06/05 01:47:22;;;;;;;7.47;3.28;;;;;;;14.30;92.43;101125.22;5213759;28;20017;-74
2022/06/05 01:50:02;;;;;;;4.82;3.22;;;;;;;14.50;89.94;101115.59;5214029;28;20029;-75
2022/06/05 01:52:40;;;;;;;5.13;3.13;;;;;;;14.42;89.73;101128.19;5210789;28;20536;-74
2022/06/05 01:55:22;;;;;;;5.93;3.25;;;;;;;14.05;91.94;101117.47;5213846;28;20039;-73
2022/06/05 01:57:57;;;;;;;6.53;3.40;;;;;;;14.04;90.47;101120.16;5213108;28;20079;-74
2022/06/05 02:00:28;;;;;;;4.95;3.17;;;;;;;13.73;92.85;101117.91;5211553;28;20036;-73
2022/06/05 02:03:08;;;;;;;4.15;3.13;;;;;;;13.78;94.56;101117.72;5214299;28;20050;-75
2022/06/05 02:05:50;;;;;;;6.13;3.90;;;;;;;13.79;93.29;101111.56;5208507;28;20426;-73
2022/06/05 02:08:54;;;;;;;5.20;3.33;;;;;;;13.67;95.12;101112.03;5203300;28;20037;-73
2022/06/05 02:11:28;;;;;;;5.63;3.60;;;;;;;13.84;94.39;101105.22;5244814;22;20421;-72
2022/06/05 02:14:06;;;;;;;5.43;3.30;;;;;;;14.12;92.00;101112.81;5233143;28;20470;-72
2022/06/05 02:16:38;;;;;;;6.45;3.60;;;;;;;14.15;91.14;101110.06;5227731;28;20070;-72
2022/06/05 02:19:13;;;;;;;6.10;3.85;;;;;;;13.98;91.81;101113.41;5234058;28;20781;-72
2022/06/05 02:21:44;;;;;;;7.72;3.63;;;;;;;13.82;94.19;101117.56;5233321;28;20032;-72
2022/06/05 02:24:15;;;;;;;5.13;3.45;;;;;;;13.94;92.72;101116.19;5233372;28;20274;-73
2022/06/05 02:26:46;;;;;;;6.05;3.70;;;;;;;13.67;94.95;101112.91;5233034;28;20371;-73
2022/06/05 02:29:21;;;;;;;5.18;3.25;;;;;;;13.75;93.04;101109.97;5233167;28;20086;-73
2022/06/05 02:31:54;;;;;;;5.35;3.42;;;;;;;13.60;94.84;101107.94;5232612;28;20588;-73
2022/06/05 02:34:26;;;;;;;6.88;3.78;;;;;;;13.72;93.82;101110.94;5234338;28;20029;-73
2022/06/05 02:37:09;;;;;;;7.35;3.33;;;;;;;13.66;93.63;101102.44;5228318;28;20043;-73
2022/06/05 02:39:57;;;;;;;6.22;3.40;;;;;;;13.62;95.81;101114.00;5232056;28;20063;-73
2022/06/05 02:42:38;;;;;;;4.15;3.08;;;;;;;13.40;95.31;101118.38;5231082;28;20449;-73
2022/06/05 02:45:24;;;;;;;4.50;3.15;;;;;;;13.21;96.86;101117.38;5229189;28;20032;-72
2022/06/05 02:48:28;;;;;;;6.18;3.60;;;;;;;12.62;97.74;101121.25;5231480;28;20036;-73
2022/06/05 02:51:13;;;;;;;6.15;3.50;;;;;;;12.70;97.22;101119.25;5234401;28;20494;-72
2022/06/05 02:53:48;;;;;;;4.50;2.90;;;;;;;12.78;96.25;101122.44;5229994;28;20036;-73
2022/06/05 02:56:19;;;;;;;5.53;3.35;;;;;;;13.14;93.18;101116.75;5232103;28;20028;-72
2022/06/05 02:58:51;;;;;;;6.25;3.40;;;;;;;13.27;92.93;101111.88;5232346;28;20059;-73
2022/06/05 03:04:11;;;;;;;5.82;3.75;;;;;;;12.87;96.18;101111.63;5228601;28;20040;-71
2022/06/05 03:06:41;;;;;;;5.13;3.70;;;;;;;12.81;98.51;101119.69;5211903;28;20029;-72
2022/06/05 03:09:12;;;;;;;4.28;3.50;;;;;;;12.84;99.46;101109.09;5225084;28;20475;-72
2022/06/05 03:11:42;;;;;;;5.55;3.50;;;;;;;12.83;98.36;101106.53;5232677;28;20048;-73
2022/06/05 03:14:13;;;;;;;4.75;3.35;;;;;;;12.87;98.35;101103.75;5233129;28;20048;-73
2022/06/05 03:16:43;;;;;;;5.35;3.55;;;;;;;13.17;95.77;101103.50;5232177;28;20367;-72
2022/06/05 03:19:13;;;;;;;7.05;3.50;;;;;;;13.06;97.00;101102.19;5232922;28;20359;-72
2022/06/05 03:21:44;;;;;;;5.32;3.88;;;;;;;13.33;96.25;101095.88;5231933;28;20102;-73
2022/06/05 03:24:14;;;;;;;6.55;3.40;;;;;;;13.48;94.30;101108.41;5232205;28;20032;-72
2022/06/05 03:26:45;;;;;;;4.82;3.25;;;;;;;13.51;94.77;101117.03;5231987;28;20033;-72
2022/06/05 03:29:16;;;;;;;5.45;3.30;;;;;;;13.60;94.74;101128.97;5232110;28;20485;-72
2022/06/05 03:31:46;;;;;;;4.47;3.15;;;;;;;13.61;95.19;101133.31;5231989;28;20048;-72
2022/06/05 03:34:17;;;;;;;4.72;3.47;;;;;;;13.63;94.40;101120.97;5231899;28;20382;-72
2022/06/05 03:36:47;;;;;;;4.72;3.35;;;;;;;13.72;94.27;101124.06;5228520;28;20112;-74
2022/06/05 03:39:18;;;;;;;5.50;3.30;;;;;;;13.72;94.46;101112.72;5225124;28;20040;-73
2022/06/05 03:41:48;;;;;;;7.70;3.72;;;;;;;13.73;94.63;101109.19;5231850;28;20032;-74
2022/06/05 03:44:19;;;;;;;5.47;3.60;;;;;;;13.70;95.63;101107.53;5231570;28;20041;-74
2022/06/05 03:46:49;;;;;;;4.60;3.25;;;;;;;13.80;95.38;101095.75;5213432;28;20127;-74
2022/06/05 03:49:19;;;;;;;6.97;3.47;;;;;;;13.82;94.72;101090.41;5231189;28;20234;-74
2022/06/05 03:51:49;;;;;;;6.93;3.47;;;;;;;13.92;94.88;101097.00;5232112;28;20490;-73
2022/06/05 03:54:20;;;;;;;4.70;3.33;;;;;;;13.69;95.23;101090.06;5231628;28;20488;-73
2022/06/05 03:56:50;;;;;;;6.28;2.90;;;;;;;13.48;98.78;101095.28;5231736;28;20132;-73
2022/06/05 03:59:21;;;;;;;6.55;3.38;;;;;;;13.60;96.56;101094.81;5230314;28;20062;-73
2022/06/05 04:01:51;;;;;;;4.47;3.25;;;;;;;13.83;95.37;101086.88;5231464;28;20166;-73
2022/06/05 04:04:23;;;;;;;4.60;3.08;;;;;;;13.82;97.16;101085.16;5230871;28;20415;-73
2022/06/05 04:06:53;;;;;;;4.55;3.15;;;;;;;14.21;94.54;101080.91;5227410;28;20517;-73
2022/06/05 04:09:23;;;;;;;4.82;3.30;;;;;;;13.99;95.74;101087.94;5225677;28;20422;-73
2022/06/05 04:11:54;;;;;;;6.03;3.50;;;;;;;14.21;94.12;101083.53;5232253;28;20132;-73
2022/06/05 04:14:24;;;;;;;4.75;3.28;;;;;;;14.34;93.62;101075.06;5230507;28;20482;-73
2022/06/05 04:16:54;;;;;;;4.80;3.25;;;;;;;14.51;92.79;101071.72;5232402;28;20051;-73
2022/06/05 04:19:25;;;;;;;5.07;3.22;;;;;;;14.48;93.47;101067.44;5230016;28;20498;-73
2022/06/05 04:21:55;;;;;;;5.60;3.30;;;;;;;14.70;92.89;101055.06;5214109;28;20024;-73
2022/06/05 04:24:26;;;;;;;5.45;3.58;;;;;;;14.73;92.62;101048.81;5229427;28;20033;-73
2022/06/05 04:26:56;;;;;;;3.95;2.97;;;;;;;14.75;94.87;101057.50;5232067;28;20035;-74
2022/06/05 04:29:27;;;;;;;4.95;2.90;;;;;;;14.82;93.95;101053.66;5211339;28;20058;-73
2022/06/05 04:31:57;;;;;;;5.18;3.35;;;;;;;14.87;93.19;101040.19;5232280;28;20028;-74
2022/06/05 04:34:27;;;;;;;6.45;3.40;;;;;;;15.10;92.42;101034.75;5229168;28;20367;-74
2022/06/05 04:36:58;;;;;;;6.13;3.38;;;;;;;15.51;88.67;101023.13;5226011;28;20064;-73
2022/06/05 04:39:28;;;;;;;6.25;3.00;;;;;;;16.09;87.72;101024.59;5224580;28;20074;-73
2022/06/05 04:41:59;;;;;;;4.53;2.78;;;;;;;17.31;82.71;101017.03;5232248;28;20051;-74
2022/06/05 04:44:30;;;;;;;4.88;2.58;;;;;;;20.01;71.00;101014.25;5228842;28;20060;-74
2022/06/05 04:47:00;;;;;;;4.32;2.50;;;;;;;22.67;65.71;101005.13;5232178;28;20040;-74
2022/06/05 04:49:30;;;;;;;5.00;2.38;;;;;;;22.92;63.49;100999.56;5228400;28;20040;-74
2022/06/05 04:52:01;;;;;;;4.22;2.25;;;;;;;23.16;62.89;100991.44;5232844;28;20225;-74
2022/06/05 04:54:32;;;;;;;4.00;2.20;;;;;;;25.00;57.67;100989.72;5228943;28;20485;-74
2022/06/05 04:57:02;;;;;;;4.32;2.03;;;;;;;25.62;56.40;100987.66;5232240;28;20027;-74
2022/06/05 04:59:33;;;;;;;3.15;2.05;;;;;;;25.76;57.02;100989.06;5228073;28;20401;-75
2022/06/05 05:02:03;;;;;;;2.38;1.77;;;;;;;25.13;57.41;100995.69;5232875;28;20031;-74
2022/06/05 05:04:34;;;;;;;3.28;1.77;;;;;;;25.29;56.15;100990.69;5228621;28;20029;-74
2022/06/05 05:07:04;;;;;;;3.17;2.03;;;;;;;24.70;56.33;100991.59;5226616;28;20025;-74
2022/06/05 05:09:34;;;;;;;3.55;1.80;;;;;;;24.67;56.92;100989.19;5205876;28;20455;-74
2022/06/05 05:12:05;;;;;;;2.88;1.80;;;;;;;26.55;54.54;100981.53;5231743;28;20020;-75
2022/06/05 05:14:37;;;;;;;4.10;2.03;;;;;;;26.65;53.91;100976.16;5211227;28;20110;-74
2022/06/05 05:17:08;;;;;;;2.63;1.90;;;;;;;27.15;54.15;100978.34;5231441;28;20481;-74
2022/06/05 05:19:38;;;;;;;3.50;1.80;;;;;;;26.13;55.06;100987.38;5229352;28;20032;-74
2022/06/05 05:22:08;;;;;;;2.35;1.63;;;;;;;26.58;54.03;100980.41;5230943;28;20279;-74
2022/06/05 05:24:38;;;;;;;4.35;1.80;;;;;;;27.02;53.07;100981.34;5229326;28;20055;-74
2022/06/05 05:27:09;;;;;;;3.65;2.10;;;;;;;25.47;55.32;100990.88;5227804;28;20423;-74
2022/06/05 05:29:40;;;;;;;3.95;1.98;;;;;;;26.84;54.76;100980.44;5229270;28;20059;-73
2022/06/05 05:32:11;;;;;;;3.15;1.92;;;;;;;26.37;54.16;100985.09;5230286;28;20451;-73
2022/06/05 05:34:41;;;;;;;4.03;1.90;;;;;;;25.73;55.66;100987.53;5210271;28;20051;-73
2022/06/05 05:37:11;;;;;;;4.05;1.95;;;;;;;26.08;55.71;100989.66;5225374;28;20075;-73
2022/06/05 05:42:31;;;;;;;5.10;2.10;;;;;;;24.76;57.41;100999.94;5227643;28;20036;-73
2022/06/05 05:45:02;;;;;;;8.20;2.63;;;;;;;24.29;58.79;100991.63;5232519;28;20024;-73
2022/06/05 05:47:35;;;;;;;4.07;2.30;;;;;;;23.40;59.17;101000.13;5224357;28;20029;-73
2022/06/05 05:50:11;;;;;;;3.83;2.35;;;;;;;22.46;62.15;101010.44;5232089;28;20028;-73
2022/06/05 05:52:43;;;;;;;5.93;2.42;;;;;;;22.09;63.59;101004.38;5229391;28;20072;-73
2022/06/05 05:55:19;;;;;;;4.90;2.75;;;;;;;21.80;64.08;101002.22;5230083;28;20090;-73
2022/06/05 05:57:50;;;;;;;4.07;2.40;;;;;;;21.78;65.05;101001.50;5229946;28;20414;-73
2022/06/05 06:00:20;;;;;;;7.00;2.70;;;;;;;21.62;64.86;101017.75;5229050;28;20043;-73
2022/06/05 06:02:51;;;;;;;4.05;2.58;;;;;;;21.61;66.16;101012.50;5230247;28;20093;-73
2022/06/05 06:05:21;;;;;;;3.60;2.47;;;;;;;21.66;64.84;101026.34;5229038;28;20525;-73
2022/06/05 06:07:51;;;;;;;3.85;2.42;;;;;;;20.74;67.72;101019.72;5222961;28;20860;-73
2022/06/05 06:10:22;;;;;;;3.95;2.50;;;;;;;21.20;66.82;101010.22;5226334;28;20024;-73
2022/06/05 06:12:52;;;;;;;5.82;3.25;;;;;;;21.40;65.36;101008.78;5230309;28;20105;-73
2022/06/05 06:15:22;;;;;;;4.45;2.80;;;;;;;21.03;67.11;101007.09;5228709;28;20478;-72
2022/06/05 06:17:53;;;;;;;5.90;2.95;;;;;;;20.67;67.35;101003.47;5212522;28;20107;-73
2022/06/05 06:20:23;;;;;;;4.30;2.63;;;;;;;21.04;66.33;101004.28;5210552;28;20029;-73
2022/06/05 06:22:53;;;;;;;3.97;2.80;;;;;;;21.32;66.76;100998.69;5230804;28;20312;-73
2022/06/05 06:25:24;;;;;;;4.50;2.65;;;;;;;21.27;66.32;100992.00;5230518;28;20048;-72
2022/06/05 06:27:54;;;;;;;3.88;2.55;;;;;;;21.43;65.84;100988.09;5230563;28;20044;-72
2022/06/05 06:30:24;;;;;;;9.25;2.97;;;;;;;21.17;66.45;100996.28;5232904;28;20028;-73
2022/06/05 06:32:55;;;;;;;5.22;2.80;;;;;;;21.66;66.62;100989.09;5234512;28;20104;-73
2022/06/05 06:35:25;;;;;;;3.80;2.60;;;;;;;22.05;64.83;100988.78;5212398;28;20028;-73
2022/06/05 06:37:55;;;;;;;4.60;2.78;;;;;;;21.73;65.34;100987.69;5225704;28;20100;-72
2022/06/05 06:40:26;;;;;;;3.78;2.70;;;;;;;22.25;65.18;100980.09;5225214;28;20025;-73
2022/06/05 06:42:57;;;;;;;5.93;2.65;;;;;;;22.01;64.17;100981.97;5228774;28;20101;-73
2022/06/05 06:45:27;;;;;;;4.55;2.58;;;;;;;21.99;64.84;100975.91;5227584;28;20029;-73
2022/06/05 06:47:57;;;;;;;6.25;3.00;;;;;;;21.99;65.20;100973.25;5228227;28;20020;-73
2022/06/05 06:50:28;;;;;;;6.65;3.05;;;;;;;22.56;63.69;100974.13;5228466;28;20108;-73
2022/06/05 06:52:58;;;;;;;4.75;2.83;;;;;;;23.00;63.85;100965.13;5225932;28;20036;-72
2022/06/05 06:55:30;;;;;;;5.03;2.60;;;;;;;23.13;63.42;100963.19;5226950;28;20060;-73
2022/06/05 06:58:01;;;;;;;3.75;2.38;;;;;;;22.61;64.28;100961.28;5226163;28;20024;-73
2022/06/05 07:00:31;;;;;;;4.07;2.58;;;;;;;22.34;64.46;100958.06;5227387;28;20044;-73
2022/06/05 07:03:02;;;;;;;4.68;2.55;;;;;;;22.56;63.99;100952.81;5234637;28;20477;-73
2022/06/05 07:05:32;;;;;;;4.95;2.80;;;;;;;23.27;63.96;100946.91;5230813;28;20037;-73
2022/06/05 07:08:03;;;;;;;4.05;2.90;;;;;;;22.88;64.08;100949.25;5233222;28;20591;-73
2022/06/05 07:10:35;;;;;;;4.65;2.78;;;;;;;23.55;62.44;100940.97;5229828;28;20521;-73
2022/06/05 07:13:06;;;;;;;3.72;2.70;;;;;;;23.98;61.27;100935.56;5228985;28;20025;-73
2022/06/05 07:15:36;;;;;;;6.65;3.20;;;;;;;23.55;62.50;100930.31;5226514;28;20093;-73
2022/06/05 07:18:07;;;;;;;6.20;2.72;;;;;;;24.20;61.99;100917.59;5227445;28;20075;-72
2022/06/05 07:20:40;;;;;;;5.72;2.85;;;;;;;24.01;62.21;100920.16;5227085;28;20409;-73
2022/06/05 07:23:12;;;;;;;4.50;2.63;;;;;;;24.19;62.43;100923.91;5228446;28;20021;-72
2022/06/05 07:25:49;;;;;;;4.00;2.60;;;;;;;24.32;62.26;100910.31;5221389;28;20040;-73
2022/06/05 07:28:20;;;;;;;4.72;2.70;;;;;;;24.55;61.87;100907.38;5222773;28;20032;-73
2022/06/05 07:30:51;;;;;;;4.65;2.60;;;;;;;25.18;61.33;100905.16;5202666;28;20033;-73
2022/06/05 07:33:23;;;;;;;5.57;2.50;;;;;;;26.25;58.84;100901.31;5220683;28;20417;-73
2022/06/05 07:36:03;;;;;;;3.45;2.20;;;;;;;25.97;59.98;100891.50;5224177;28;20119;-73
2022/06/05 07:38:35;;;;;;;4.03;2.47;;;;;;;26.97;58.78;100888.84;5222540;28;20051;-73
2022/06/05 07:41:13;;;;;;;4.68;2.28;;;;;;;27.00;58.53;100884.03;5222753;28;20084;-73
2022/06/05 07:43:44;;;;;;;3.50;1.92;;;;;;;27.36;58.59;100885.78;5226477;28;20028;-73
2022/06/05 07:46:15;;;;;;;4.03;2.05;;;;;;;27.88;57.04;100884.03;5224151;28;20067;-73
2022/06/05 07:48:47;;;;;;;3.45;2.17;;;;;;;27.82;56.78;100882.81;5229564;28;20410;-73
2022/06/05 07:54:28;;;;;;;4.13;2.20;;;;;;;27.43;57.87;100884.16;5221134;28;20118;-73
2022/06/05 07:56:59;;;;;;;3.15;1.75;;;;;;;28.16;56.35;100877.50;5229915;28;20017;-74
2022/06/05 07:59:35;;;;;;;3.55;2.28;;;;;;;27.18;57.69;100895.66;5233026;28;20474;-73
2022/06/05 08:02:17;;;;;;;4.60;2.10;;;;;;;27.79;58.85;100883.13;5230332;28;20032;-73
2022/06/05 08:04:48;;;;;;;3.72;2.10;;;;;;;27.36;58.61;100885.78;5231491;28;20036;-73
2022/06/05 08:07:21;;;;;;;4.15;2.20;;;;;;;26.57;59.37;100880.34;5231333;28;20048;-74
2022/06/05 08:09:52;;;;;;;4.22;2.10;;;;;;;27.13;58.97;100886.38;5231196;28;20028;-73
2022/06/05 08:12:24;;;;;;;4.47;2.00;;;;;;;27.60;58.37;100872.53;5209712;22;20053;-75
2022/06/05 08:14:55;;;;;;;4.68;2.08;;;;;;;26.72;59.48;100877.97;5183966;28;20030;-76
2022/06/05 08:17:30;;;;;;;6.50;2.50;;;;;;;25.95;59.88;100868.50;5189773;28;20027;-74
2022/06/05 08:20:01;;;;;;;;;;;;;;;26.12;60.27;100868.63;5186629;28;20497;-75
2022/06/05 08:22:32;;;;;;;6.80;2.35;;;;;;;27.09;59.87;100858.94;5179380;28;19914;-75
2022/06/05 08:25:02;;;;;;;3.83;2.38;;;;;;;25.80;59.99;100867.28;5178325;28;20030;-75
2022/06/05 08:27:32;;;;;;;4.60;2.42;;;;;;;24.94;63.00;100859.22;5183975;28;20029;-75
2022/06/05 08:30:03;;;;;;;4.20;2.50;;;;;;;24.30;64.45;100859.72;5190311;28;20601;-74
2022/06/05 08:32:34;;;;;;;4.13;2.15;;;;;;;24.52;63.69;100854.19;5185209;28;20037;-75
2022/06/05 08:35:04;;;;;;;4.55;2.40;;;;;;;25.51;62.40;100845.03;5190183;28;20037;-75
2022/06/05 08:43:43;;;;;;;3.95;2.33;;;;;;;25.57;62.20;100839.09;5181236;28;20074;-75
2022/06/05 08:46:26;;;;;;;3.08;2.17;;;;;;;25.09;62.03;100843.59;5182616;28;20367;-74
2022/06/05 08:49:01;;;;;;;4.60;2.50;;;;;;;25.21;62.88;100840.69;5184578;28;20037;-75
2022/06/05 08:51:54;;;;;;;5.45;2.22;;;;;;;25.20;62.69;100830.97;5183582;28;20021;-75
2022/06/05 08:54:44;;;;;;;3.20;2.10;;;;;;;24.69;61.78;100845.50;5188479;28;20076;-75
2022/06/05 08:57:20;;;;;;;5.63;2.15;;;;;;;25.92;61.31;100829.47;5186984;28;20029;-75
2022/06/05 08:59:53;;;;;;;;;;;;;;;25.66;61.44;100838.25;5189434;28;20052;-75
2022/06/05 09:02:40;;;;;;;3.33;2.30;;;;;;;25.77;60.63;100824.69;5187327;28;20366;-75
2022/06/05 09:05:34;;;;;;;4.40;2.35;;;;;;;24.24;63.65;100832.66;5185874;28;20064;-74
2022/06/05 09:08:12;;;;;;;5.53;2.80;;;;;;;24.73;63.50;100826.38;5182320;28;20029;-74
2022/06/05 09:10:45;;;;;;;3.38;2.35;;;;;;;24.64;65.02;100841.53;5188864;28;20076;-75
2022/06/05 09:13:28;;;;;;;4.38;2.22;;;;;;;24.96;64.66;100837.69;5186705;28;20029;-76
2022/06/05 09:16:09;;;;;;;3.92;2.20;;;;;;;25.86;62.32;100834.56;5189870;28;20558;-76
2022/06/05 09:18:45;;;;;;;3.50;2.13;;;;;;;26.05;61.04;100829.16;5184960;28;20030;-76
2022/06/05 09:21:39;;;;;;;4.05;2.20;;;;;;;25.20;62.09;100828.28;5189024;28;20281;-75
2022/06/05 09:24:26;;;;;;;4.97;2.42;;;;;;;25.11;64.21;100826.41;5178814;28;20032;-75
2022/06/05 09:26:56;;;;;;;4.78;2.40;;;;;;;25.61;61.08;100819.94;5187203;28;20113;-75
2022/06/05 09:29:37;;;;;;;2.80;1.83;;;;;;;25.76;61.82;100815.81;5190555;28;20128;-75
2022/06/05 09:32:13;;;;;;;2.90;2.13;;;;;;;25.56;60.56;100824.03;5184739;28;20281;-75
2022/06/05 09:34:53;;;;;;;3.15;2.10;;;;;;;25.62;61.52;100818.06;5189543;28;20116;-75
2022/06/05 09:37:28;;;;;;;4.07;2.15;;;;;;;24.65;63.48;100806.66;5187586;28;20083;-74
2022/06/05 09:40:14;;;;;;;;;;;;;;;24.89;63.31;100815.13;5188352;28;20033;-74
2022/06/05 09:43:14;;;;;;;3.05;2.03;;;;;;;25.26;62.71;100802.78;5184771;28;19971;-74
2022/06/05 09:45:45;;;;;;;3.80;2.10;;;;;;;25.20;62.29;100801.53;5180227;28;20057;-75
2022/06/05 09:48:21;;;;;;;4.05;2.25;;;;;;;25.12;63.65;100798.66;5174971;28;20101;-75
2022/06/05 09:50:52;;;;;;;5.75;2.35;;;;;;;25.35;64.21;100804.63;5177800;28;20121;-75
2022/06/05 09:53:35;;;;;;;22.35;3.33;;;;;;;25.64;63.41;100792.84;5179941;28;20304;-75
2022/06/05 09:56:35;;;;;;;8.85;2.58;;;;;;;25.22;61.92;100802.22;5180875;28;20034;-74
2022/06/05 09:59:16;;;;;;;4.65;2.30;;;;;;;25.22;61.57;100779.97;5184426;28;20026;-75
2022/06/05 10:01:51;;;;;;;4.50;2.10;;;;;;;25.03;63.19;100796.00;5186565;28;20060;-75
2022/06/05 10:04:27;;;;;;;3.63;2.13;;;;;;;25.99;62.09;100781.50;5182559;28;20176;-75
2022/06/05 10:07:06;;;;;;;7.82;2.20;;;;;;;26.21;61.57;100779.25;5188055;28;20338;-75
2022/06/05 10:09:44;;;;;;;3.72;2.20;;;;;;;25.89;62.09;100768.16;5187626;28;20029;-74
2022/06/05 10:12:32;;;;;;;3.97;2.08;;;;;;;25.00;62.83;100765.00;5192011;28;20482;-75
2022/06/05 10:15:26;;;;;;;3.22;2.40;;;;;;;24.77;62.34;100768.13;5197182;28;20053;-74
2022/06/05 10:18:03;;;;;;;3.60;2.40;;;;;;;24.61;63.48;100767.81;5189932;28;20025;-74
2022/06/05 10:20:54;;;;;;;6.70;2.53;;;;;;;24.27;65.85;100763.78;5184888;28;20446;-75
2022/06/05 10:23:37;;;;;;;3.28;2.50;;;;;;;24.45;64.56;100762.13;5188316;28;20033;-75
2022/06/05 10:26:14;;;;;;;4.18;2.70;;;;;;;24.81;64.25;100748.13;5186106;28;20041;-74
2022/06/05 10:28:46;;;;;;;2.92;2.40;;;;;;;24.57;65.69;100734.31;5190652;28;20033;-75
2022/06/05 10:31:20;;;;;;;4.35;2.75;;;;;;;24.68;64.72;100726.16;5190455;28;20042;-75
2022/06/05 10:34:19;;;;;;;4.88;2.45;;;;;;;25.02;64.95;100720.25;5191573;28;20041;-75
2022/06/05 10:36:56;;;;;;;4.85;2.72;;;;;;;25.41;64.22;100710.34;5189722;28;20127;-73
2022/06/05 10:39:45;;;;;;;4.05;2.40;;;;;;;25.57;63.23;100715.94;5188632;28;20052;-74
2022/06/05 10:42:21;;;;;;;4.20;2.35;;;;;;;25.28;62.07;100707.16;5188303;28;20489;-75
2022/06/05 10:45:07;;;;;;;4.50;2.30;;;;;;;25.61;63.39;100701.25;5192576;28;20380;-75
2022/06/05 10:48:05;;;;;;;2.83;2.20;;;;;;;24.72;64.92;100684.78;5186758;28;20042;-76
2022/06/05 10:50:47;;;;;;;3.55;2.20;;;;;;;24.39;65.75;100692.34;5184532;28;20033;-75
2022/06/05 10:53:37;;;;;;;5.07;2.40;;;;;;;24.85;65.17;100694.22;5190666;28;20031;-75
2022/06/05 10:56:13;;;;;;;3.08;2.45;;;;;;;24.84;64.56;100683.66;5187096;28;20388;-73
2022/06/05 10:58:56;;;;;;;3.47;2.53;;;;;;;25.64;65.08;100688.41;5191049;28;20033;-74
2022/06/05 11:01:42;;;;;;;3.50;2.38;;;;;;;25.27;63.70;100692.06;5190037;28;20040;-75
2022/06/05 11:04:21;;;;;;;4.68;2.50;;;;;;;25.28;62.97;100694.59;5186563;28;20115;-75
2022/06/05 11:07:21;;;;;;;4.38;2.33;;;;;;;25.83;63.47;100693.69;5189672;28;20121;-74
2022/06/05 11:10:04;;;;;;;4.32;2.40;;;;;;;25.26;62.06;100691.22;5189753;28;20057;-75
2022/06/05 11:16:40;;;;;;;3.92;2.50;;;;;;;25.85;62.11;100678.34;5183214;28;20026;-75
2022/06/05 11:19:30;;;;;;;6.95;4.30;;;;;;;25.67;61.46;100684.63;5187631;28;20045;-76
2022/06/05 11:22:05;;;;;;;4.40;2.85;;;;;;;25.53;61.75;100675.22;5181703;28;20033;-75
2022/06/05 11:24:49;;;;;;;4.93;3.70;;;;;;;25.64;63.82;100666.16;5170347;28;20088;-75
2022/06/05 11:27:41;;;;;;;6.13;3.92;;;;;;;25.59;62.19;100663.06;5181478;28;20037;-76
2022/06/05 11:30:24;;;;;;;9.52;5.43;;;;;;;25.40;63.18;100652.44;5186975;28;20029;-75
2022/06/05 11:33:04;;;;;;;9.18;5.65;;;;;;;25.37;63.00;100644.72;5189753;28;20088;-74
2022/06/05 11:35:45;;;;;;;10.43;7.28;;;;;;;25.37;64.40;100631.31;5184565;28;20034;-75
2022/06/05 11:38:30;;;;;;;12.50;8.73;;;;;;;25.19;62.90;100630.41;5189834;28;20018;-75
2022/06/05 11:41:12;;;;;;;6.55;3.65;;;;;;;25.40;63.13;100617.63;5186054;28;20105;-76
2022/06/05 11:43:43;;;;;;;13.52;8.77;;;;;;;25.49;62.91;100617.59;5186509;28;20034;-75
2022/06/05 11:46:30;;;;;;;6.47;3.33;;;;;;;25.38;62.91;100601.75;5189847;28;20091;-76
2022/06/05 11:49:06;;;;;;;3.33;2.60;;;;;;;25.86;62.90;100599.66;5188856;28;20022;-75
2022/06/05 11:51:46;;;;;;;4.15;3.00;;;;;;;25.67;62.36;100609.63;5184839;28;20021;-75
2022/06/05 11:54:25;;;;;;;2.90;2.20;;;;;;;25.75;62.14;100585.59;5190201;28;20522;-75
2022/06/05 11:57:48;;;;;;;5.18;2.60;;;;;;;25.69;61.96;100591.56;5191799;28;20033;-76
2022/06/05 12:00:31;;;;;;;3.35;2.40;;;;;;;25.75;61.51;100582.94;5171377;28;20045;-75
2022/06/05 12:03:11;;;;;;;5.72;2.30;;;;;;;25.68;63.12;100568.47;5188623;28;20030;-75
2022/06/05 12:05:41;;;;;;;3.83;2.20;;;;;;;25.86;63.23;100566.69;5187084;28;20029;-76
2022/06/05 12:08:19;;;;;;;4.30;2.13;;;;;;;25.60;61.79;100560.31;5190382;28;20025;-74
2022/06/05 12:11:03;;;;;;;3.42;2.22;;;;;;;25.19;62.67;100571.53;5190244;28;20904;-75
2022/06/05 12:13:58;;;;;;;4.55;2.35;;;;;;;25.36;62.13;100565.41;5186317;28;20033;-75
2022/06/05 12:16:35;;;;;;;5.45;2.38;;;;;;;25.21;63.76;100558.84;5184177;28;20064;-75
2022/06/05 12:19:15;;;;;;;3.00;2.25;;;;;;;25.29;62.21;100551.75;5187054;28;20018;-75
2022/06/05 12:22:11;;;;;;;4.82;2.22;;;;;;;25.60;62.40;100541.59;5189781;28;20022;-76
2022/06/05 12:24:51;;;;;;;3.28;2.22;;;;;;;25.55;61.54;100552.75;5187237;28;20037;-75
2022/06/05 12:27:21;;;;;;;6.38;2.80;;;;;;;25.48;62.53;100546.31;5186784;28;20038;-75
2022/06/05 12:29:58;;;;;;;3.28;2.03;;;;;;;25.74;63.47;100530.34;5188308;28;20030;-75